Time;durP1;ratioP1;P1;durP2;ratioP2;P2;SDS_P1;SDS_P2;PMS_P1;PMS_P2;Temp;Humidity;BMP_temperature;BMP_pressure;BME280_temperature;BME280_humidity;BME280_pressure;Samples;Min_cycle;Max_cycle;Signal;HPM_P1;HPM_P2
2022/10/21 00:00:04;;;;;;;9.10;8.13;;;15.50;37.70;;;;;;5033566;28;20653;-40
2022/10/21 00:02:29;;;;;;;14.13;8.15;;;15.50;37.60;;;;;;5033831;28;20206;-40
2022/10/21 00:04:55;;;;;;;12.53;8.37;;;15.40;37.70;;;;;;5033622;28;20197;-40
2022/10/21 00:07:21;;;;;;;9.27;7.10;;;15.40;37.90;;;;;;5032353;28;20193;-40
2022/10/21 00:09:47;;;;;;;11.13;8.10;;;15.50;37.90;;;;;;5033060;28;20217;-39
2022/10/21 00:12:12;;;;;;;9.47;7.97;;;15.50;38.20;;;;;;5033483;28;20197;-40
2022/10/21 00:14:38;;;;;;;9.50;7.83;;;15.50;38.20;;;;;;5033482;28;20174;-40
2022/10/21 00:17:04;;;;;;;11.87;8.67;;;15.40;38.00;;;;;;5032724;28;20224;-40
2022/10/21 00:19:29;;;;;;;9.70;8.03;;;15.40;38.00;;;;;;5033636;28;20166;-40
2022/10/21 00:21:55;;;;;;;12.20;8.90;;;15.40;38.00;;;;;;5033788;28;20162;-40
2022/10/21 00:24:21;;;;;;;10.83;8.23;;;15.40;38.00;;;;;;5034331;28;20631;-40
2022/10/21 00:26:49;;;;;;;13.97;8.53;;;15.40;38.20;;;;;;5032436;28;20214;-40
2022/10/21 00:29:15;;;;;;;8.88;7.85;;;15.40;38.90;;;;;;5032928;28;20182;-40
2022/10/21 00:31:40;;;;;;;9.80;8.73;;;15.30;38.20;;;;;;5033059;28;20260;-41
2022/10/21 00:34:06;;;;;;;11.70;8.03;;;15.30;38.20;;;;;;5031505;22;20313;-46
2022/10/21 00:36:32;;;;;;;8.03;7.20;;;15.30;38.20;;;;;;5012382;28;20202;-46
2022/10/21 00:38:58;;;;;;;11.33;8.40;;;15.30;38.30;;;;;;5013365;28;20175;-45
2022/10/21 00:41:23;;;;;;;10.20;9.00;;;15.20;38.40;;;;;;5013210;28;20170;-46
2022/10/21 00:44:02;;;;;;;13.40;7.80;;;15.30;38.30;;;;;;5012999;28;20183;-46
2022/10/21 00:46:51;;;;;;;9.88;8.00;;;15.30;38.30;;;;;;5012413;28;20634;-44
2022/10/21 00:49:19;;;;;;;13.25;8.18;;;15.30;38.30;;;;;;5013008;28;20707;-45
2022/10/21 00:51:48;;;;;;;11.20;8.82;;;15.30;38.40;;;;;;5012878;28;20254;-44
2022/10/21 00:54:15;;;;;;;10.57;8.48;;;15.20;38.30;;;;;;5012866;28;20298;-44
2022/10/21 00:56:44;;;;;;;10.65;7.68;;;15.20;38.40;;;;;;5012194;28;20198;-43
2022/10/21 00:59:10;;;;;;;11.65;8.52;;;15.30;38.70;;;;;;5012779;28;20166;-45
2022/10/21 01:01:36;;;;;;;8.40;6.75;;;15.30;39.00;;;;;;5012726;28;20181;-46
2022/10/21 01:04:04;;;;;;;11.37;8.40;;;15.30;38.90;;;;;;5012651;28;20186;-45
2022/10/21 01:06:31;;;;;;;10.05;7.63;;;15.20;38.90;;;;;;5012015;28;20496;-46
2022/10/21 01:08:58;;;;;;;11.38;7.95;;;15.20;39.00;;;;;;5012982;28;20182;-45
2022/10/21 01:11:25;;;;;;;10.93;8.85;;;15.20;39.30;;;;;;5013340;28;20183;-45
2022/10/21 01:14:12;;;;;;;9.10;7.50;;;15.20;39.70;;;;;;5013501;28;20198;-44
2022/10/21 01:16:47;;;;;;;9.82;7.45;;;15.20;39.90;;;;;;5013182;28;20190;-45
2022/10/21 01:19:27;;;;;;;11.38;8.20;;;15.10;40.20;;;;;;5013070;28;20525;-44
2022/10/21 01:22:02;;;;;;;9.55;7.47;;;15.20;40.10;;;;;;5013491;28;20190;-45
2022/10/21 01:25:04;;;;;;;8.70;7.00;;;15.20;40.10;;;;;;5012568;28;20194;-45
2022/10/21 01:27:53;;;;;;;11.98;7.88;;;15.10;40.00;;;;;;5012049;28;20180;-45
2022/10/21 01:30:30;;;;;;;9.02;8.13;;;15.00;40.10;;;;;;4999214;28;20669;-46
2022/10/21 01:33:06;;;;;;;11.45;8.38;;;15.00;40.20;;;;;;5012112;28;20739;-45
2022/10/21 01:35:51;;;;;;;11.43;8.85;;;15.00;40.10;;;;;;5011977;28;20197;-45
2022/10/21 01:38:41;;;;;;;9.77;7.00;;;15.00;40.20;;;;;;5012497;28;20518;-45
2022/10/21 01:41:09;;;;;;;12.90;8.52;;;15.00;40.10;;;;;;5012507;28;20210;-45
2022/10/21 01:44:07;;;;;;;13.07;9.10;;;15.00;40.00;;;;;;4994587;28;20190;-46
2022/10/21 01:46:50;;;;;;;9.65;8.32;;;15.00;39.80;;;;;;4965642;28;20175;-45
2022/10/21 01:49:32;;;;;;;11.25;7.45;;;15.00;39.90;;;;;;5012197;28;20421;-45
2022/10/21 01:52:00;;;;;;;10.52;7.30;;;14.90;40.00;;;;;;5012252;28;20151;-46
2022/10/21 01:54:31;;;;;;;12.40;7.45;;;14.90;40.00;;;;;;5012239;28;20571;-46
2022/10/21 01:56:59;;;;;;;10.02;6.85;;;15.00;39.90;;;;;;5011497;28;20202;-44
2022/10/21 01:59:28;;;;;;;10.23;7.22;;;15.00;39.80;;;;;;5012020;28;20543;-45
2022/10/21 02:01:56;;;;;;;14.05;8.02;;;14.90;39.90;;;;;;5012063;28;20250;-46
2022/10/21 02:04:23;;;;;;;8.90;7.18;;;14.90;40.00;;;;;;5011937;28;20199;-46
2022/10/21 02:06:48;;;;;;;9.90;8.75;;;14.90;40.00;;;;;;5011533;28;20802;-45
2022/10/21 02:09:14;;;;;;;11.43;7.90;;;14.90;40.30;;;;;;5012023;28;20190;-46
2022/10/21 02:11:43;;;;;;;9.40;8.13;;;14.90;40.40;;;;;;5012001;28;20913;-45
2022/10/21 02:14:30;;;;;;;9.18;7.80;;;14.90;40.10;;;;;;5011819;28;20210;-43
2022/10/21 02:16:58;;;;;;;11.27;8.65;;;14.90;40.40;;;;;;5011654;28;20253;-45
2022/10/21 02:19:24;;;;;;;11.57;7.75;;;14.90;40.70;;;;;;4994457;28;20665;-46
2022/10/21 02:21:53;;;;;;;14.93;8.93;;;14.80;40.60;;;;;;5012036;28;20627;-45
2022/10/21 02:24:52;;;;;;;9.70;8.10;;;14.90;40.80;;;;;;5011803;28;20205;-46
2022/10/21 02:27:19;;;;;;;10.73;8.27;;;14.90;40.90;;;;;;4993868;28;20174;-45
2022/10/21 02:29:47;;;;;;;8.27;7.28;;;14.80;40.80;;;;;;5011847;28;20229;-45
2022/10/21 02:32:55;;;;;;;19.77;8.15;;;14.80;41.30;;;;;;5013953;28;20174;-45
2022/10/21 02:35:56;;;;;;;10.95;7.50;;;14.80;41.40;;;;;;4976904;28;20638;-46
2022/10/21 02:38:48;;;;;;;10.45;8.30;;;14.90;41.80;;;;;;5015475;28;20174;-45
2022/10/21 02:41:20;;;;;;;13.45;8.75;;;14.90;41.60;;;;;;5015369;28;20189;-44
2022/10/21 02:43:51;;;;;;;9.73;7.93;;;14.80;41.40;;;;;;5015410;28;20194;-45
2022/10/21 02:46:17;;;;;;;11.85;8.95;;;14.90;41.50;;;;;;5014669;28;20545;-46
2022/10/21 02:48:45;;;;;;;9.40;8.20;;;14.80;41.70;;;;;;5015213;28;20654;-46
2022/10/21 02:51:11;;;;;;;11.45;8.52;;;14.80;41.70;;;;;;5015131;28;20175;-46
2022/10/21 02:53:37;;;;;;;11.20;9.13;;;14.80;42.10;;;;;;5015021;28;20226;-44
2022/10/21 02:56:04;;;;;;;12.93;9.25;;;14.80;42.40;;;;;;5014606;28;20202;-46
2022/10/21 02:58:30;;;;;;;14.52;9.27;;;14.70;42.50;;;;;;5014995;28;20190;-45
2022/10/21 03:00:56;;;;;;;10.25;8.43;;;14.70;42.60;;;;;;5014872;28;20257;-46
2022/10/21 03:03:21;;;;;;;11.53;8.93;;;14.70;42.40;;;;;;5014890;28;20278;-45
2022/10/21 03:05:47;;;;;;;13.43;8.63;;;14.70;42.30;;;;;;5014278;28;20940;-45
2022/10/21 03:08:13;;;;;;;13.50;10.03;;;14.80;42.30;;;;;;5014471;28;20538;-45
2022/10/21 03:10:39;;;;;;;15.23;8.67;;;14.80;42.20;;;;;;5014680;28;20177;-45
2022/10/21 03:13:05;;;;;;;18.07;10.40;;;14.80;42.10;;;;;;4997043;28;20445;-44
2022/10/21 03:15:30;;;;;;;11.63;9.13;;;14.90;42.20;;;;;;5014499;28;20171;-45
2022/10/21 03:17:56;;;;;;;13.87;10.63;;;14.70;42.10;;;;;;5014478;28;20898;-45
2022/10/21 03:20:22;;;;;;;11.80;9.00;;;14.70;42.30;;;;;;4996998;28;20422;-46
2022/10/21 03:22:48;;;;;;;10.13;9.10;;;14.70;42.20;;;;;;5014420;28;20430;-45
2022/10/21 03:25:14;;;;;;;12.40;9.37;;;14.80;42.10;;;;;;5014366;28;20217;-46
2022/10/21 03:27:39;;;;;;;12.77;9.07;;;14.80;42.10;;;;;;5014161;28;20178;-45
2022/10/21 03:30:07;;;;;;;11.57;8.40;;;14.90;42.00;;;;;;5014551;28;20643;-45
2022/10/21 03:32:33;;;;;;;16.05;9.20;;;14.90;41.80;;;;;;5014357;28;20199;-45
2022/10/21 03:34:59;;;;;;;11.23;9.90;;;14.90;41.90;;;;;;5015188;28;20627;-44
2022/10/21 03:37:25;;;;;;;18.27;10.53;;;14.90;41.80;;;;;;5014243;28;20206;-45
2022/10/21 03:39:50;;;;;;;15.50;9.47;;;14.90;41.70;;;;;;5015078;28;20185;-44
2022/10/21 03:42:16;;;;;;;15.80;11.10;;;14.90;41.70;;;;;;5015130;28;20178;-43
2022/10/21 03:44:42;;;;;;;11.80;9.83;;;14.90;41.80;;;;;;5014909;28;20166;-45
2022/10/21 03:47:08;;;;;;;10.10;8.80;;;14.80;42.10;;;;;;5014484;28;20464;-45
2022/10/21 03:49:34;;;;;;;15.13;10.43;;;14.80;42.00;;;;;;5014836;28;20220;-45
2022/10/21 03:52:00;;;;;;;11.57;9.47;;;14.80;42.10;;;;;;5014046;28;20593;-45
2022/10/21 03:54:25;;;;;;;15.40;10.30;;;14.70;42.20;;;;;;5013802;28;20445;-45
2022/10/21 03:56:51;;;;;;;12.30;9.57;;;14.60;42.20;;;;;;5013240;28;20711;-43
2022/10/21 03:59:17;;;;;;;13.03;10.07;;;14.60;42.30;;;;;;5013869;28;20162;-46
2022/10/21 04:01:43;;;;;;;15.97;11.10;;;14.50;42.30;;;;;;4996419;28;21030;-46
2022/10/21 04:04:08;;;;;;;12.10;9.17;;;14.60;42.20;;;;;;5013712;28;20194;-44
2022/10/21 04:06:34;;;;;;;10.83;9.70;;;14.60;42.30;;;;;;5013024;28;20765;-45
2022/10/21 04:09:00;;;;;;;13.63;10.20;;;14.50;42.20;;;;;;5013526;28;20163;-45
2022/10/21 04:11:26;;;;;;;15.53;10.23;;;14.50;42.20;;;;;;5013682;28;20171;-44
2022/10/21 04:13:52;;;;;;;12.70;9.27;;;14.50;42.20;;;;;;5013452;28;20433;-44
2022/10/21 04:16:19;;;;;;;13.23;9.43;;;14.50;42.40;;;;;;5012892;28;20554;-45
2022/10/21 04:18:45;;;;;;;12.93;10.30;;;14.50;42.40;;;;;;5013686;28;20175;-46
2022/10/21 04:21:11;;;;;;;12.73;9.10;;;14.40;42.20;;;;;;5013315;28;20177;-45
2022/10/21 04:23:37;;;;;;;16.20;10.13;;;14.50;42.50;;;;;;5013247;28;20766;-45
2022/10/21 04:26:04;;;;;;;15.53;11.00;;;14.40;42.60;;;;;;5012834;28;20177;-45
2022/10/21 04:28:30;;;;;;;11.30;9.25;;;14.40;42.60;;;;;;5013569;28;20174;-45
2022/10/21 04:30:56;;;;;;;12.57;10.40;;;14.30;42.80;;;;;;5013264;28;20254;-46
2022/10/21 04:33:21;;;;;;;13.93;10.37;;;14.30;42.90;;;;;;5013130;28;20445;-45
2022/10/21 04:35:47;;;;;;;13.20;9.03;;;14.40;42.90;;;;;;5012455;28;20206;-46
2022/10/21 04:38:13;;;;;;;14.53;10.00;;;14.30;43.00;;;;;;5013012;28;20166;-45
2022/10/21 04:40:39;;;;;;;15.40;10.17;;;14.30;43.00;;;;;;5013425;28;20265;-45
2022/10/21 04:43:05;;;;;;;12.97;10.30;;;14.40;43.10;;;;;;5013164;28;20913;-45
2022/10/21 04:45:30;;;;;;;16.10;9.95;;;14.40;42.90;;;;;;5012762;28;20205;-44
2022/10/21 04:47:56;;;;;;;11.07;9.40;;;14.50;42.80;;;;;;5012832;28;20620;-46
2022/10/21 04:50:22;;;;;;;12.90;10.10;;;14.40;43.00;;;;;;5013225;28;20190;-45
2022/10/21 04:52:48;;;;;;;11.53;9.57;;;14.40;43.30;;;;;;5012917;28;20189;-44
2022/10/21 04:55:13;;;;;;;14.33;9.20;;;14.40;43.30;;;;;;5013108;28;20531;-45
2022/10/21 04:57:39;;;;;;;11.03;8.97;;;14.40;43.20;;;;;;5012951;28;20210;-44
2022/10/21 05:00:06;;;;;;;13.53;8.63;;;14.40;43.20;;;;;;5013881;28;20179;-44
2022/10/21 05:02:32;;;;;;;14.48;10.18;;;14.30;43.50;;;;;;5014028;28;20194;-44
2022/10/21 05:04:57;;;;;;;12.83;10.03;;;14.30;43.50;;;;;;5013698;28;20178;-43
2022/10/21 05:07:23;;;;;;;12.80;9.53;;;14.40;43.30;;;;;;5013127;28;20425;-46
2022/10/21 05:09:49;;;;;;;14.20;11.10;;;14.30;43.50;;;;;;5012992;28;20630;-46
2022/10/21 05:12:15;;;;;;;13.73;9.67;;;14.30;43.40;;;;;;5012446;28;20505;-44
2022/10/21 05:14:40;;;;;;;13.83;10.90;;;14.40;43.30;;;;;;5012512;28;20175;-45
2022/10/21 05:17:06;;;;;;;12.83;10.13;;;14.40;43.20;;;;;;5011901;28;20313;-46
2022/10/21 05:19:32;;;;;;;14.50;10.07;;;14.30;43.40;;;;;;5012535;28;20174;-45
2022/10/21 05:21:58;;;;;;;16.17;10.60;;;14.30;43.60;;;;;;5012392;28;20194;-45
2022/10/21 05:24:24;;;;;;;16.10;11.53;;;14.20;43.80;;;;;;5012383;28;20580;-43
2022/10/21 05:26:50;;;;;;;13.93;9.57;;;14.20;44.50;;;;;;5011777;28;20194;-44
2022/10/21 05:29:17;;;;;;;16.98;10.75;;;14.20;43.80;;;;;;5012478;28;20437;-45
2022/10/21 05:31:43;;;;;;;15.30;10.82;;;14.20;43.60;;;;;;5012406;28;20206;-45
2022/10/21 05:34:08;;;;;;;13.23;10.80;;;14.30;43.70;;;;;;5012039;28;20626;-45
2022/10/21 05:36:34;;;;;;;14.00;12.53;;;14.30;43.60;;;;;;5011599;28;20289;-45
2022/10/21 05:39:00;;;;;;;12.00;10.03;;;14.30;43.60;;;;;;5012272;28;20162;-45
2022/10/21 05:41:26;;;;;;;19.67;10.60;;;14.20;43.60;;;;;;5012262;28;20439;-44
2022/10/21 05:43:52;;;;;;;16.87;12.07;;;14.20;43.90;;;;;;5012118;28;20209;-45
2022/10/21 05:46:17;;;;;;;11.30;10.10;;;14.20;43.90;;;;;;5011643;28;20470;-45
2022/10/21 05:48:43;;;;;;;18.43;9.57;;;14.20;43.70;;;;;;5012148;28;20202;-46
2022/10/21 05:51:09;;;;;;;12.10;9.40;;;14.20;43.80;;;;;;5012074;28;20171;-44
2022/10/21 05:53:35;;;;;;;16.10;12.20;;;14.20;44.40;;;;;;5011980;28;20300;-45
2022/10/21 05:56:06;;;;;;;14.10;9.80;;;14.20;43.90;;;;;;5011453;28;20217;-45
2022/10/21 05:58:33;;;;;;;13.90;10.55;;;14.20;43.80;;;;;;5012218;28;20398;-46
2022/10/21 06:00:59;;;;;;;15.80;11.65;;;14.20;44.00;;;;;;5012037;28;20631;-45
2022/10/21 06:03:31;;;;;;;15.25;12.25;;;14.20;44.10;;;;;;5011728;28;20732;-45
2022/10/21 06:06:03;;;;;;;18.77;12.15;;;14.20;44.10;;;;;;5013762;28;20173;-45
2022/10/21 06:08:31;;;;;;;13.05;9.70;;;14.20;44.00;;;;;;5016011;28;20178;-45
2022/10/21 06:11:05;;;;;;;17.17;12.57;;;14.20;44.00;;;;;;5015847;28;20201;-45
2022/10/21 06:13:31;;;;;;;16.58;11.77;;;14.30;43.90;;;;;;5015734;28;20198;-46
2022/10/21 06:15:58;;;;;;;17.60;12.30;;;14.30;43.80;;;;;;5015115;28;20230;-46
2022/10/21 06:18:24;;;;;;;12.18;10.27;;;14.30;43.80;;;;;;5015698;28;20171;-46
2022/10/21 06:20:50;;;;;;;15.40;10.93;;;14.30;43.90;;;;;;5015767;28;20174;-46
2022/10/21 06:23:15;;;;;;;16.90;10.63;;;14.30;44.10;;;;;;5015469;28;20508;-46
2022/10/21 06:25:42;;;;;;;13.70;10.70;;;14.30;44.10;;;;;;5015050;28;20198;-44
2022/10/21 06:28:08;;;;;;;14.18;11.13;;;14.30;44.10;;;;;;4997952;28;20179;-46
2022/10/21 06:30:34;;;;;;;15.73;10.50;;;14.40;44.00;;;;;;5015343;28;20665;-45
2022/10/21 06:33:00;;;;;;;13.52;10.05;;;14.30;44.00;;;;;;5015366;28;20484;-45
2022/10/21 06:35:26;;;;;;;13.87;10.20;;;14.40;43.90;;;;;;5015061;28;20197;-45
2022/10/21 06:37:51;;;;;;;13.47;9.67;;;14.50;44.00;;;;;;5014962;28;20171;-44
2022/10/21 06:40:17;;;;;;;11.20;9.70;;;14.50;43.80;;;;;;5015272;28;20218;-46
2022/10/21 06:42:43;;;;;;;13.20;10.00;;;14.60;43.80;;;;;;5015156;28;20191;-46
2022/10/21 06:45:09;;;;;;;23.20;11.57;;;14.60;43.80;;;;;;5015243;28;20776;-46
2022/10/21 06:47:35;;;;;;;17.55;11.38;;;14.70;43.60;;;;;;5014653;28;20190;-46
2022/10/21 06:50:02;;;;;;;17.63;11.20;;;14.90;43.40;;;;;;5030316;22;20163;-42
2022/10/21 06:52:30;;;;;;;14.80;9.60;;;15.00;43.10;;;;;;5014919;28;20166;-42
2022/10/21 06:54:55;;;;;;;13.70;10.32;;;15.10;42.80;;;;;;5015210;28;20182;-42
2022/10/21 06:57:21;;;;;;;12.40;9.67;;;15.10;42.60;;;;;;5014870;28;20281;-42
2022/10/21 06:59:47;;;;;;;14.00;11.10;;;15.10;42.60;;;;;;5014972;28;20170;-41
2022/10/21 07:02:13;;;;;;;13.73;10.07;;;15.10;42.70;;;;;;5014768;28;20174;-42
2022/10/21 07:04:43;;;;;;;12.67;9.60;;;15.10;42.80;;;;;;5014950;28;20406;-42
2022/10/21 07:07:09;;;;;;;13.05;10.38;;;15.10;42.70;;;;;;5014762;28;20179;-42
2022/10/21 07:09:34;;;;;;;12.67;10.80;;;15.30;42.90;;;;;;5014783;28;20171;-42
2022/10/21 07:12:01;;;;;;;16.83;9.90;;;15.50;42.50;;;;;;5014887;28;20248;-42
2022/10/21 07:14:26;;;;;;;12.63;10.75;;;15.80;41.70;;;;;;5014728;28;20818;-41
2022/10/21 07:16:52;;;;;;;13.70;10.13;;;16.00;41.50;;;;;;5013547;28;20218;-42
2022/10/21 07:19:18;;;;;;;10.23;9.13;;;16.20;40.80;;;;;;5014570;28;20418;-42
2022/10/21 07:21:45;;;;;;;12.05;9.20;;;16.30;40.30;;;;;;5014474;28;20496;-42
2022/10/21 07:24:11;;;;;;;13.02;10.88;;;16.30;40.10;;;;;;5014502;28;20167;-42
2022/10/21 07:26:37;;;;;;;13.37;10.97;;;16.40;39.70;;;;;;5014210;28;20229;-42
2022/10/21 07:29:04;;;;;;;14.10;10.65;;;16.40;39.60;;;;;;5014460;28;20769;-42
2022/10/21 07:31:36;;;;;;;13.55;9.95;;;16.20;39.80;;;;;;5014198;28;20644;-41
2022/10/21 07:34:04;;;;;;;16.05;9.85;;;16.20;40.00;;;;;;5014317;28;20240;-41
2022/10/21 07:36:32;;;;;;;16.20;11.50;;;16.00;40.60;;;;;;5013893;28;20290;-42
2022/10/21 07:39:01;;;;;;;10.77;9.13;;;16.00;40.70;;;;;;5014173;28;20163;-42
2022/10/21 07:41:37;;;;;;;11.68;9.60;;;15.90;40.80;;;;;;5014369;28;20245;-42
2022/10/21 07:44:04;;;;;;;11.10;9.43;;;15.80;41.20;;;;;;5014097;28;20642;-41
2022/10/21 07:46:30;;;;;;;11.98;8.80;;;15.80;41.30;;;;;;5013405;28;20179;-42
2022/10/21 07:48:56;;;;;;;11.70;9.43;;;15.80;41.20;;;;;;5014093;28;20313;-41
2022/10/21 07:51:24;;;;;;;11.60;9.00;;;15.70;41.40;;;;;;5013766;28;20210;-41
2022/10/21 07:53:52;;;;;;;14.43;8.90;;;15.60;41.60;;;;;;5013986;28;20179;-41
2022/10/21 07:56:35;;;;;;;11.30;9.32;;;15.60;41.90;;;;;;5013169;28;20205;-41
2022/10/21 07:59:03;;;;;;;10.82;9.05;;;15.60;41.80;;;;;;5014553;28;20170;-41
2022/10/21 08:01:29;;;;;;;11.20;9.73;;;15.60;41.90;;;;;;5013604;28;20241;-41
2022/10/21 08:03:56;;;;;;;14.68;10.23;;;15.50;42.00;;;;;;5013700;28;20175;-41
2022/10/21 08:06:23;;;;;;;10.57;9.27;;;15.50;42.10;;;;;;5013035;28;20186;-41
2022/10/21 08:08:50;;;;;;;12.48;9.35;;;15.50;42.30;;;;;;5013407;28;20213;-41
2022/10/21 08:11:27;;;;;;;9.32;8.00;;;15.60;42.10;;;;;;5013430;28;20199;-41
2022/10/21 08:13:53;;;;;;;15.68;8.75;;;15.60;41.90;;;;;;5013657;28;20245;-41
2022/10/21 08:16:19;;;;;;;12.70;8.90;;;15.70;42.20;;;;;;5012866;28;20198;-42
2022/10/21 08:18:45;;;;;;;17.03;10.97;;;15.80;41.80;;;;;;5013537;28;20174;-41
2022/10/21 08:21:10;;;;;;;14.33;10.50;;;15.80;42.00;;;;;;5013400;28;20429;-41
2022/10/21 08:23:36;;;;;;;14.50;9.63;;;15.90;41.60;;;;;;5013391;28;20631;-41
2022/10/21 08:26:03;;;;;;;15.00;10.90;;;15.90;41.30;;;;;;5012781;28;20190;-42
2022/10/21 08:28:30;;;;;;;16.83;11.27;;;15.90;41.20;;;;;;5012718;28;20225;-41
2022/10/21 08:31:08;;;;;;;13.55;11.40;;;16.00;41.20;;;;;;5012800;28;20705;-42
2022/10/21 08:33:34;;;;;;;11.05;9.95;;;15.90;41.40;;;;;;5013252;28;20174;-42
2022/10/21 08:36:11;;;;;;;11.45;9.82;;;16.00;41.10;;;;;;5012735;28;20238;-39
2022/10/21 08:38:37;;;;;;;14.63;9.85;;;16.40;41.30;;;;;;5013130;28;20202;-41
2022/10/21 08:41:15;;;;;;;15.40;9.43;;;16.80;40.20;;;;;;5013040;28;20201;-40
2022/10/21 08:43:42;;;;;;;11.65;10.23;;;16.90;39.70;;;;;;5012972;28;20177;-41
2022/10/21 08:46:16;;;;;;;12.07;8.43;;;17.00;39.50;;;;;;5012345;28;20178;-41
2022/10/21 08:48:55;;;;;;;10.40;9.27;;;17.00;39.30;;;;;;5012874;28;20665;-41
2022/10/21 08:51:32;;;;;;;14.02;9.68;;;17.00;39.60;;;;;;5012619;28;20589;-42
2022/10/21 08:54:04;;;;;;;11.55;10.35;;;17.30;39.70;;;;;;5012920;28;20170;-41
2022/10/21 08:56:31;;;;;;;13.13;10.23;;;17.70;39.20;;;;;;5012319;28;20209;-42
2022/10/21 08:58:57;;;;;;;10.63;8.93;;;17.90;37.70;;;;;;5012760;28;20224;-41
2022/10/21 09:01:32;;;;;;;9.68;8.68;;;18.10;37.90;;;;;;5012446;28;20558;-42
2022/10/21 09:04:06;;;;;;;12.48;9.90;;;18.20;36.80;;;;;;5012710;28;20165;-42
2022/10/21 09:06:51;;;;;;;10.98;9.02;;;18.20;37.00;;;;;;5012145;28;20170;-42
2022/10/21 09:09:44;;;;;;;10.43;9.32;;;18.20;37.30;;;;;;5012630;28;20249;-41
2022/10/21 09:12:28;;;;;;;10.18;8.63;;;18.20;36.80;;;;;;5012617;28;20175;-42
2022/10/21 09:15:12;;;;;;;10.73;9.50;;;18.20;36.80;;;;;;5012578;28;20154;-42
2022/10/21 09:17:59;;;;;;;12.80;8.98;;;18.20;37.20;;;;;;5011951;28;20297;-42
2022/10/21 09:20:28;;;;;;;10.73;9.27;;;18.20;36.60;;;;;;5012496;28;20225;-42
2022/10/21 09:23:06;;;;;;;11.35;9.32;;;18.30;37.50;;;;;;5012702;28;20186;-42
2022/10/21 09:25:52;;;;;;;13.63;9.60;;;18.30;36.80;;;;;;5012122;28;20221;-41
2022/10/21 09:28:18;;;;;;;8.68;7.55;;;18.20;36.50;;;;;;5011035;28;20182;-42
2022/10/21 09:30:44;;;;;;;16.80;8.80;;;18.10;36.70;;;;;;5012806;28;20195;-41
2022/10/21 09:33:26;;;;;;;11.57;9.80;;;18.00;37.30;;;;;;4994643;28;20538;-40
2022/10/21 09:36:10;;;;;;;12.40;8.23;;;18.00;37.90;;;;;;5011790;28;20263;-41
2022/10/21 09:38:44;;;;;;;10.10;9.00;;;18.00;37.50;;;;;;5012259;28;20147;-42
2022/10/21 09:41:20;;;;;;;22.27;9.88;;;18.00;37.30;;;;;;5016778;28;20576;-41
2022/10/21 09:43:47;;;;;;;10.38;9.20;;;17.90;37.20;;;;;;5018983;28;20158;-42
2022/10/21 09:46:14;;;;;;;10.30;9.20;;;17.80;37.50;;;;;;5018041;28;20189;-41
2022/10/21 09:48:52;;;;;;;14.15;8.65;;;17.80;37.40;;;;;;5018699;28;20220;-41
2022/10/21 09:51:24;;;;;;;21.65;9.90;;;17.70;37.90;;;;;;5018498;28;20209;-42
2022/10/21 09:53:54;;;;;;;11.68;9.40;;;17.60;38.00;;;;;;5018696;28;20170;-42
2022/10/21 09:56:27;;;;;;;12.95;8.65;;;17.60;37.70;;;;;;5017942;28;20210;-42
2022/10/21 09:59:10;;;;;;;25.27;11.70;;;17.60;38.30;;;;;;5018589;28;20151;-41
2022/10/21 10:01:37;;;;;;;9.60;8.60;;;17.80;38.20;;;;;;5018528;28;20194;-41
2022/10/21 10:04:28;;;;;;;11.77;9.43;;;17.80;37.70;;;;;;5018520;28;20190;-41
2022/10/21 10:06:54;;;;;;;9.10;8.20;;;17.90;37.70;;;;;;5017982;28;20167;-41
2022/10/21 10:09:32;;;;;;;13.47;9.40;;;17.90;37.40;;;;;;5018459;28;20174;-42
2022/10/21 10:12:04;;;;;;;13.38;10.55;;;18.00;37.50;;;;;;5018350;28;20433;-42
2022/10/21 10:14:39;;;;;;;10.25;9.20;;;18.00;37.50;;;;;;5018448;28;20167;-41
2022/10/21 10:17:30;;;;;;;9.60;8.60;;;18.10;37.40;;;;;;5017802;28;20229;-42
2022/10/21 10:20:43;;;;;;;12.15;9.75;;;18.20;37.80;;;;;;5019535;28;20178;-43
2022/10/21 10:23:18;;;;;;;11.20;9.35;;;18.20;37.00;;;;;;5017070;28;20227;-43
2022/10/21 10:25:50;;;;;;;11.10;9.27;;;18.10;37.70;;;;;;5018125;28;20162;-44
2022/10/21 10:28:19;;;;;;;12.57;9.35;;;18.20;37.60;;;;;;5018307;28;20182;-43
2022/10/21 10:30:51;;;;;;;23.63;9.57;;;18.10;37.60;;;;;;5018255;28;20598;-43
2022/10/21 10:33:23;;;;;;;11.02;9.20;;;18.00;37.90;;;;;;5018348;28;20159;-44
2022/10/21 10:35:55;;;;;;;11.30;8.88;;;17.90;37.80;;;;;;5017694;28;20195;-43
2022/10/21 10:38:29;;;;;;;11.43;8.98;;;17.90;38.00;;;;;;5018293;28;20167;-43
2022/10/21 10:41:13;;;;;;;12.43;9.02;;;17.90;38.30;;;;;;5018228;28;20197;-44
2022/10/21 10:43:57;;;;;;;12.13;9.05;;;17.90;38.40;;;;;;5018225;28;20194;-43
2022/10/21 10:46:34;;;;;;;10.38;9.27;;;17.90;38.40;;;;;;5017664;28;20178;-44
2022/10/21 10:49:14;;;;;;;10.32;8.95;;;18.00;38.50;;;;;;5018218;28;20177;-43
2022/10/21 10:51:41;;;;;;;15.38;9.07;;;18.00;38.40;;;;;;5016271;28;20222;-43
2022/10/21 10:54:28;;;;;;;10.00;8.73;;;18.00;38.50;;;;;;5015105;28;20186;-44
2022/10/21 10:57:07;;;;;;;13.95;8.48;;;18.00;38.20;;;;;;5014405;28;20662;-43
2022/10/21 11:00:03;;;;;;;11.48;7.68;;;18.10;38.70;;;;;;5014970;28;20198;-43
2022/10/21 11:02:43;;;;;;;11.38;9.48;;;18.10;38.90;;;;;;5014981;28;20684;-43
2022/10/21 11:05:15;;;;;;;11.35;10.07;;;18.20;38.60;;;;;;5014964;28;20178;-44
2022/10/21 11:07:49;;;;;;;12.98;9.07;;;18.20;38.40;;;;;;5014155;28;20177;-43
2022/10/21 11:10:45;;;;;;;16.90;10.07;;;18.40;38.20;;;;;;5014607;28;20209;-44
2022/10/21 11:13:20;;;;;;;11.45;10.27;;;18.40;38.30;;;;;;5014681;28;20198;-44
2022/10/21 11:16:04;;;;;;;15.05;10.63;;;18.50;38.40;;;;;;5014103;28;20593;-44
2022/10/21 11:18:42;;;;;;;12.38;10.00;;;18.80;38.10;;;;;;5014840;28;20289;-44
2022/10/21 11:21:32;;;;;;;15.05;11.10;;;18.90;37.70;;;;;;5014758;28;20194;-44
2022/10/21 11:24:19;;;;;;;12.23;10.70;;;19.00;37.60;;;;;;5014501;28;20158;-43
2022/10/21 11:27:06;;;;;;;14.20;11.63;;;19.10;37.70;;;;;;5014032;28;20880;-43
2022/10/21 11:29:43;;;;;;;14.27;11.63;;;19.10;37.20;;;;;;5014336;28;20183;-44
2022/10/21 11:32:34;;;;;;;14.18;11.98;;;19.10;37.70;;;;;;5014313;28;20173;-44
2022/10/21 11:35:21;;;;;;;12.10;10.80;;;19.20;37.60;;;;;;5014346;28;20170;-44
2022/10/21 11:38:03;;;;;;;12.98;11.20;;;19.10;37.20;;;;;;5014023;28;20206;-44
2022/10/21 11:40:40;;;;;;;13.07;11.32;;;19.10;37.70;;;;;;5014289;28;20389;-44
2022/10/21 11:43:28;;;;;;;16.70;11.65;;;19.10;37.60;;;;;;5014209;28;20492;-44
2022/10/21 11:46:04;;;;;;;14.57;12.45;;;19.00;37.60;;;;;;5013498;28;20202;-44
2022/10/21 11:48:53;;;;;;;14.88;12.07;;;18.90;37.40;;;;;;5014118;28;20626;-43
2022/10/21 11:51:33;;;;;;;14.27;11.30;;;18.90;38.10;;;;;;5013832;28;20217;-44
2022/10/21 11:54:11;;;;;;;18.20;13.10;;;18.80;38.10;;;;;;5013915;28;20709;-44
2022/10/21 11:57:07;;;;;;;14.30;12.75;;;18.70;38.40;;;;;;5013545;28;20194;-44
2022/10/21 12:00:11;;;;;;;13.82;12.15;;;18.70;38.60;;;;;;5014040;28;20257;-44
2022/10/21 12:03:00;;;;;;;16.55;13.73;;;18.70;38.70;;;;;;5014004;28;20155;-44
2022/10/21 12:05:32;;;;;;;19.05;13.85;;;18.60;38.80;;;;;;5013642;28;20647;-44
2022/10/21 12:08:19;;;;;;;15.07;13.55;;;18.60;38.40;;;;;;4996108;28;20241;-44
2022/10/21 12:11:18;;;;;;;16.55;14.15;;;18.70;38.80;;;;;;5013526;28;20190;-44
2022/10/21 12:13:50;;;;;;;17.92;13.95;;;18.70;38.90;;;;;;5012777;28;20233;-44
2022/10/21 12:16:24;;;;;;;19.05;15.82;;;18.60;38.60;;;;;;5012958;28;20195;-44
2022/10/21 12:18:56;;;;;;;21.63;14.45;;;18.70;38.60;;;;;;5013458;28;20638;-44
2022/10/21 12:21:28;;;;;;;21.67;14.75;;;18.70;38.70;;;;;;5013626;28;20191;-44
2022/10/21 12:24:19;;;;;;;17.92;14.07;;;18.70;38.40;;;;;;5013529;28;20177;-44
2022/10/21 12:26:56;;;;;;;14.50;12.93;;;18.70;38.70;;;;;;4995487;28;20601;-44
2022/10/21 12:29:57;;;;;;;14.52;13.02;;;18.70;38.70;;;;;;5013279;28;20162;-44
2022/10/21 12:32:53;;;;;;;15.57;13.80;;;18.70;38.90;;;;;;5013088;28;20650;-44
2022/10/21 12:35:27;;;;;;;17.10;13.15;;;18.60;38.80;;;;;;5013169;28;20190;-44
2022/10/21 12:37:53;;;;;;;16.75;14.18;;;18.50;39.00;;;;;;5012791;28;20206;-44
2022/10/21 12:40:24;;;;;;;13.90;11.53;;;18.50;39.50;;;;;;5013028;28;20654;-44
2022/10/21 12:43:22;;;;;;;13.20;11.77;;;18.40;39.40;;;;;;5013101;28;20182;-44
2022/10/21 12:46:03;;;;;;;15.68;12.02;;;18.40;39.80;;;;;;5012482;28;20257;-44
2022/10/21 12:48:38;;;;;;;14.65;12.68;;;18.20;40.10;;;;;;5013021;28;20682;-43
2022/10/21 12:51:23;;;;;;;18.08;14.07;;;18.10;40.70;;;;;;5012737;28;20209;-44
2022/10/21 12:53:56;;;;;;;14.75;13.25;;;18.10;41.00;;;;;;5012899;28;20178;-44
2022/10/21 12:56:44;;;;;;;16.85;15.05;;;18.00;41.40;;;;;;5012339;28;20203;-44